sensor_id;sensor_type;location;lat;lon;timestamp;temperature;humidity
24011;DHT22;12217;50.792;4.372;2023-02-19T00:01:19;21.50;99.90
24011;DHT22;12217;50.792;4.372;2023-02-19T00:03:56;21.50;99.90
24011;DHT22;12217;50.792;4.372;2023-02-19T00:06:24;21.50;99.90
24011;DHT22;12217;50.792;4.372;2023-02-19T00:08:50;21.50;99.90
24011;DHT22;12217;50.792;4.372;2023-02-19T00:11:18;21.40;99.90
24011;DHT22;12217;50.792;4.372;2023-02-19T00:13:46;21.40;99.90
24011;DHT22;12217;50.792;4.372;2023-02-19T00:16:15;21.40;99.90
24011;DHT22;12217;50.792;4.372;2023-02-19T00:18:41;21.40;99.90
24011;DHT22;12217;50.792;4.372;2023-02-19T00:21:07;21.40;99.90
24011;DHT22;12217;50.792;4.372;2023-02-19T00:23:33;21.40;99.90
24011;DHT22;12217;50.792;4.372;2023-02-19T00:26:03;21.40;99.90
24011;DHT22;12217;50.792;4.372;2023-02-19T00:28:29;21.40;99.90
24011;DHT22;12217;50.792;4.372;2023-02-19T00:30:55;21.30;99.90
24011;DHT22;12217;50.792;4.372;2023-02-19T00:33:21;21.30;99.90
24011;DHT22;12217;50.792;4.372;2023-02-19T00:35:46;21.30;99.90
24011;DHT22;12217;50.792;4.372;2023-02-19T00:38:12;21.30;99.90
24011;DHT22;12217;50.792;4.372;2023-02-19T00:40:38;21.30;99.90
24011;DHT22;12217;50.792;4.372;2023-02-19T00:43:03;21.30;99.90
24011;DHT22;12217;50.792;4.372;2023-02-19T00:45:29;21.30;99.90
24011;DHT22;12217;50.792;4.372;2023-02-19T00:47:54;21.30;99.90
24011;DHT22;12217;50.792;4.372;2023-02-19T00:50:20;21.20;99.90
24011;DHT22;12217;50.792;4.372;2023-02-19T00:52:46;21.20;99.90
24011;DHT22;12217;50.792;4.372;2023-02-19T00:55:11;21.20;99.90
24011;DHT22;12217;50.792;4.372;2023-02-19T00:57:37;21.20;99.90
24011;DHT22;12217;50.792;4.372;2023-02-19T01:00:04;21.20;99.90
24011;DHT22;12217;50.792;4.372;2023-02-19T01:02:31;21.20;99.90
24011;DHT22;12217;50.792;4.372;2023-02-19T01:04:56;21.20;99.90
24011;DHT22;12217;50.792;4.372;2023-02-19T01:07:22;21.20;99.90
24011;DHT22;12217;50.792;4.372;2023-02-19T01:09:48;21.10;99.90
24011;DHT22;12217;50.792;4.372;2023-02-19T01:12:14;21.10;99.90
24011;DHT22;12217;50.792;4.372;2023-02-19T01:14:39;21.10;99.90
24011;DHT22;12217;50.792;4.372;2023-02-19T01:17:05;21.10;99.90
24011;DHT22;12217;50.792;4.372;2023-02-19T01:19:31;21.10;99.90
24011;DHT22;12217;50.792;4.372;2023-02-19T01:21:57;21.10;99.90
24011;DHT22;12217;50.792;4.372;2023-02-19T01:24:22;21.10;99.90
24011;DHT22;12217;50.792;4.372;2023-02-19T01:26:48;21.10;99.90
24011;DHT22;12217;50.792;4.372;2023-02-19T01:29:13;21.10;99.90
24011;DHT22;12217;50.792;4.372;2023-02-19T01:31:39;21.10;99.90
24011;DHT22;12217;50.792;4.372;2023-02-19T01:34:08;21.00;99.90
24011;DHT22;12217;50.792;4.372;2023-02-19T01:36:34;21.00;99.90
24011;DHT22;12217;50.792;4.372;2023-02-19T01:39:03;21.00;99.90
24011;DHT22;12217;50.792;4.372;2023-02-19T01:41:36;21.00;99.90
24011;DHT22;12217;50.792;4.372;2023-02-19T01:46:41;21.00;99.90
24011;DHT22;12217;50.792;4.372;2023-02-19T01:49:17;21.00;99.90
24011;DHT22;12217;50.792;4.372;2023-02-19T01:51:48;20.90;99.90
24011;DHT22;12217;50.792;4.372;2023-02-19T01:54:19;20.90;99.90
24011;DHT22;12217;50.792;4.372;2023-02-19T01:56:47;20.90;99.90
24011;DHT22;12217;50.792;4.372;2023-02-19T01:59:15;20.90;99.90
24011;DHT22;12217;50.792;4.372;2023-02-19T02:01:41;20.90;99.90
24011;DHT22;12217;50.792;4.372;2023-02-19T02:04:08;20.90;99.90
24011;DHT22;12217;50.792;4.372;2023-02-19T02:06:48;20.90;99.90
24011;DHT22;12217;50.792;4.372;2023-02-19T02:09:16;20.90;99.90
24011;DHT22;12217;50.792;4.372;2023-02-19T02:12:01;20.90;99.90
24011;DHT22;12217;50.792;4.372;2023-02-19T02:14:29;20.90;99.90
24011;DHT22;12217;50.792;4.372;2023-02-19T02:22:20;20.80;99.90
24011;DHT22;12217;50.792;4.372;2023-02-19T02:27:42;20.80;99.90
24011;DHT22;12217;50.792;4.372;2023-02-19T02:30:26;20.80;99.90
24011;DHT22;12217;50.792;4.372;2023-02-19T02:35:58;20.80;99.90
24011;DHT22;12217;50.792;4.372;2023-02-19T02:38:31;20.70;99.90
24011;DHT22;12217;50.792;4.372;2023-02-19T02:40:57;20.70;99.90
24011;DHT22;12217;50.792;4.372;2023-02-19T02:43:23;20.70;99.90
24011;DHT22;12217;50.792;4.372;2023-02-19T02:45:48;20.70;99.90
24011;DHT22;12217;50.792;4.372;2023-02-19T02:53:51;20.70;99.90
24011;DHT22;12217;50.792;4.372;2023-02-19T02:56:37;20.70;99.90
24011;DHT22;12217;50.792;4.372;2023-02-19T02:59:06;20.70;99.90
24011;DHT22;12217;50.792;4.372;2023-02-19T03:01:40;20.70;99.90
24011;DHT22;12217;50.792;4.372;2023-02-19T03:06:55;20.70;99.90
24011;DHT22;12217;50.792;4.372;2023-02-19T03:09:25;20.60;99.90
24011;DHT22;12217;50.792;4.372;2023-02-19T03:11:57;20.60;99.90
24011;DHT22;12217;50.792;4.372;2023-02-19T03:14:48;20.60;99.90
24011;DHT22;12217;50.792;4.372;2023-02-19T03:20:23;20.60;99.90
24011;DHT22;12217;50.792;4.372;2023-02-19T03:22:49;20.60;99.90
24011;DHT22;12217;50.792;4.372;2023-02-19T03:25:29;20.60;99.90
24011;DHT22;12217;50.792;4.372;2023-02-19T03:28:15;20.60;99.90
24011;DHT22;12217;50.792;4.372;2023-02-19T03:30:49;20.60;99.90
24011;DHT22;12217;50.792;4.372;2023-02-19T03:33:22;20.60;99.90
24011;DHT22;12217;50.792;4.372;2023-02-19T03:35:55;20.50;99.90
24011;DHT22;12217;50.792;4.372;2023-02-19T03:38:26;20.50;99.90
24011;DHT22;12217;50.792;4.372;2023-02-19T03:41:04;20.50;99.90
24011;DHT22;12217;50.792;4.372;2023-02-19T03:47:06;20.50;99.90
24011;DHT22;12217;50.792;4.372;2023-02-19T03:52:01;20.50;99.90
24011;DHT22;12217;50.792;4.372;2023-02-19T03:57:42;20.50;99.90
24011;DHT22;12217;50.792;4.372;2023-02-19T03:59:58;20.50;99.90
24011;DHT22;12217;50.792;4.372;2023-02-19T04:02:28;20.40;99.90
24011;DHT22;12217;50.792;4.372;2023-02-19T04:05:06;20.40;99.90
24011;DHT22;12217;50.792;4.372;2023-02-19T04:07:37;20.50;99.90
24011;DHT22;12217;50.792;4.372;2023-02-19T04:10:05;20.50;99.90
24011;DHT22;12217;50.792;4.372;2023-02-19T04:12:32;20.50;99.90
24011;DHT22;12217;50.792;4.372;2023-02-19T04:15:03;20.40;99.90
24011;DHT22;12217;50.792;4.372;2023-02-19T04:17:44;20.40;99.90
24011;DHT22;12217;50.792;4.372;2023-02-19T04:20:13;20.40;99.90
24011;DHT22;12217;50.792;4.372;2023-02-19T04:22:39;20.40;99.90
24011;DHT22;12217;50.792;4.372;2023-02-19T04:25:07;20.40;99.90
24011;DHT22;12217;50.792;4.372;2023-02-19T04:27:37;20.40;99.90
24011;DHT22;12217;50.792;4.372;2023-02-19T04:30:05;20.40;99.90
24011;DHT22;12217;50.792;4.372;2023-02-19T04:32:32;20.40;99.90
24011;DHT22;12217;50.792;4.372;2023-02-19T04:34:57;20.40;99.90
24011;DHT22;12217;50.792;4.372;2023-02-19T04:37:23;20.40;99.90
24011;DHT22;12217;50.792;4.372;2023-02-19T04:39:48;20.40;99.90
24011;DHT22;12217;50.792;4.372;2023-02-19T04:42:14;20.30;99.90
24011;DHT22;12217;50.792;4.372;2023-02-19T04:44:40;20.40;99.90
24011;DHT22;12217;50.792;4.372;2023-02-19T04:47:05;20.40;99.90
24011;DHT22;12217;50.792;4.372;2023-02-19T04:49:31;20.30;99.90
24011;DHT22;12217;50.792;4.372;2023-02-19T04:51:56;20.30;99.90
24011;DHT22;12217;50.792;4.372;2023-02-19T04:54:22;20.30;99.90
24011;DHT22;12217;50.792;4.372;2023-02-19T04:56:48;20.30;99.90
24011;DHT22;12217;50.792;4.372;2023-02-19T04:59:15;20.30;99.90
24011;DHT22;12217;50.792;4.372;2023-02-19T05:01:41;20.30;99.90
24011;DHT22;12217;50.792;4.372;2023-02-19T05:04:06;20.30;99.90
24011;DHT22;12217;50.792;4.372;2023-02-19T05:06:32;20.30;99.90
24011;DHT22;12217;50.792;4.372;2023-02-19T05:08:57;20.30;99.90
24011;DHT22;12217;50.792;4.372;2023-02-19T05:11:23;20.30;99.90
24011;DHT22;12217;50.792;4.372;2023-02-19T05:13:49;20.30;99.90
24011;DHT22;12217;50.792;4.372;2023-02-19T05:16:15;20.30;99.90
24011;DHT22;12217;50.792;4.372;2023-02-19T05:18:43;20.30;99.90
24011;DHT22;12217;50.792;4.372;2023-02-19T05:21:09;20.30;99.90
24011;DHT22;12217;50.792;4.372;2023-02-19T05:23:35;20.30;99.90
24011;DHT22;12217;50.792;4.372;2023-02-19T05:28:31;20.20;99.90
24011;DHT22;12217;50.792;4.372;2023-02-19T05:30:56;20.20;99.90
24011;DHT22;12217;50.792;4.372;2023-02-19T05:33:23;20.20;99.90
24011;DHT22;12217;50.792;4.372;2023-02-19T05:35:52;20.20;99.90
24011;DHT22;12217;50.792;4.372;2023-02-19T05:38:19;20.20;99.90
24011;DHT22;12217;50.792;4.372;2023-02-19T05:40:45;20.20;99.90
24011;DHT22;12217;50.792;4.372;2023-02-19T05:43:11;20.20;99.90
24011;DHT22;12217;50.792;4.372;2023-02-19T05:45:37;20.20;99.90
24011;DHT22;12217;50.792;4.372;2023-02-19T05:48:04;20.20;99.90
24011;DHT22;12217;50.792;4.372;2023-02-19T05:50:32;20.20;99.90
24011;DHT22;12217;50.792;4.372;2023-02-19T05:53:01;20.20;99.90
24011;DHT22;12217;50.792;4.372;2023-02-19T05:55:28;20.20;99.90
24011;DHT22;12217;50.792;4.372;2023-02-19T05:57:53;20.20;99.90
24011;DHT22;12217;50.792;4.372;2023-02-19T06:00:19;20.20;99.90
24011;DHT22;12217;50.792;4.372;2023-02-19T06:02:46;20.20;99.90
24011;DHT22;12217;50.792;4.372;2023-02-19T06:05:12;20.20;99.90
24011;DHT22;12217;50.792;4.372;2023-02-19T06:07:38;20.10;99.90
24011;DHT22;12217;50.792;4.372;2023-02-19T06:10:05;20.10;99.90
24011;DHT22;12217;50.792;4.372;2023-02-19T06:12:31;20.10;99.90
24011;DHT22;12217;50.792;4.372;2023-02-19T06:14:57;20.10;99.90
24011;DHT22;12217;50.792;4.372;2023-02-19T06:17:22;20.10;99.90
24011;DHT22;12217;50.792;4.372;2023-02-19T06:19:48;20.10;99.90
24011;DHT22;12217;50.792;4.372;2023-02-19T06:22:15;20.10;99.90
24011;DHT22;12217;50.792;4.372;2023-02-19T06:24:40;20.10;99.90
24011;DHT22;12217;50.792;4.372;2023-02-19T06:27:07;20.10;99.90
24011;DHT22;12217;50.792;4.372;2023-02-19T06:29:33;20.10;99.90
24011;DHT22;12217;50.792;4.372;2023-02-19T06:31:59;20.10;99.90
24011;DHT22;12217;50.792;4.372;2023-02-19T06:34:25;20.10;99.90
24011;DHT22;12217;50.792;4.372;2023-02-19T06:36:51;20.10;99.90
24011;DHT22;12217;50.792;4.372;2023-02-19T06:39:17;20.10;99.90
24011;DHT22;12217;50.792;4.372;2023-02-19T06:41:42;20.00;99.90
24011;DHT22;12217;50.792;4.372;2023-02-19T06:44:08;20.10;99.90
24011;DHT22;12217;50.792;4.372;2023-02-19T06:46:34;20.10;99.90
24011;DHT22;12217;50.792;4.372;2023-02-19T06:49:00;20.00;99.90
24011;DHT22;12217;50.792;4.372;2023-02-19T06:51:27;20.10;99.90
24011;DHT22;12217;50.792;4.372;2023-02-19T06:53:54;20.00;99.90
24011;DHT22;12217;50.792;4.372;2023-02-19T06:56:28;20.10;99.90
24011;DHT22;12217;50.792;4.372;2023-02-19T06:58:56;20.10;99.90
24011;DHT22;12217;50.792;4.372;2023-02-19T07:01:24;20.00;99.90
24011;DHT22;12217;50.792;4.372;2023-02-19T07:03:50;20.00;99.90
24011;DHT22;12217;50.792;4.372;2023-02-19T07:06:17;20.00;99.90
24011;DHT22;12217;50.792;4.372;2023-02-19T07:08:43;20.10;99.90
24011;DHT22;12217;50.792;4.372;2023-02-19T07:11:08;20.10;99.90
24011;DHT22;12217;50.792;4.372;2023-02-19T07:13:34;20.10;99.90
24011;DHT22;12217;50.792;4.372;2023-02-19T07:16:05;20.10;99.90
24011;DHT22;12217;50.792;4.372;2023-02-19T07:18:35;20.10;99.90
24011;DHT22;12217;50.792;4.372;2023-02-19T07:21:07;20.10;99.90
24011;DHT22;12217;50.792;4.372;2023-02-19T07:23:33;20.10;99.90
24011;DHT22;12217;50.792;4.372;2023-02-19T07:25:58;20.10;99.90
24011;DHT22;12217;50.792;4.372;2023-02-19T07:28:24;20.20;99.90
24011;DHT22;12217;50.792;4.372;2023-02-19T07:30:50;20.20;99.90
24011;DHT22;12217;50.792;4.372;2023-02-19T07:33:16;20.20;99.90
24011;DHT22;12217;50.792;4.372;2023-02-19T07:35:49;20.20;99.90
24011;DHT22;12217;50.792;4.372;2023-02-19T07:38:19;20.20;99.90
24011;DHT22;12217;50.792;4.372;2023-02-19T07:40:53;20.20;99.90
24011;DHT22;12217;50.792;4.372;2023-02-19T07:43:19;20.30;99.90
24011;DHT22;12217;50.792;4.372;2023-02-19T07:45:45;20.40;99.90
24011;DHT22;12217;50.792;4.372;2023-02-19T07:48:11;20.40;99.90
24011;DHT22;12217;50.792;4.372;2023-02-19T07:50:36;20.50;99.90
24011;DHT22;12217;50.792;4.372;2023-02-19T07:53:02;20.50;99.90
24011;DHT22;12217;50.792;4.372;2023-02-19T07:55:28;20.60;99.90
24011;DHT22;12217;50.792;4.372;2023-02-19T07:57:53;20.60;99.90
24011;DHT22;12217;50.792;4.372;2023-02-19T08:00:19;20.60;99.90
24011;DHT22;12217;50.792;4.372;2023-02-19T08:02:47;20.70;99.90
24011;DHT22;12217;50.792;4.372;2023-02-19T08:05:39;20.70;99.90
24011;DHT22;12217;50.792;4.372;2023-02-19T08:08:06;20.70;99.90
24011;DHT22;12217;50.792;4.372;2023-02-19T08:10:32;20.80;99.90
24011;DHT22;12217;50.792;4.372;2023-02-19T08:13:17;20.90;99.90
24011;DHT22;12217;50.792;4.372;2023-02-19T08:15:50;20.90;99.90
24011;DHT22;12217;50.792;4.372;2023-02-19T08:18:18;20.90;99.90
24011;DHT22;12217;50.792;4.372;2023-02-19T08:20:45;21.00;99.90
24011;DHT22;12217;50.792;4.372;2023-02-19T08:23:11;21.00;99.90
24011;DHT22;12217;50.792;4.372;2023-02-19T08:25:38;21.10;99.90
24011;DHT22;12217;50.792;4.372;2023-02-19T08:28:04;21.10;99.90
24011;DHT22;12217;50.792;4.372;2023-02-19T08:30:31;21.10;99.90
24011;DHT22;12217;50.792;4.372;2023-02-19T08:32:58;21.10;99.90
24011;DHT22;12217;50.792;4.372;2023-02-19T08:35:24;21.10;99.90
24011;DHT22;12217;50.792;4.372;2023-02-19T08:37:50;21.10;99.90
24011;DHT22;12217;50.792;4.372;2023-02-19T08:40:16;21.10;99.90
24011;DHT22;12217;50.792;4.372;2023-02-19T08:42:42;21.20;99.90
24011;DHT22;12217;50.792;4.372;2023-02-19T08:45:08;21.20;99.90
24011;DHT22;12217;50.792;4.372;2023-02-19T08:47:34;21.20;99.90
24011;DHT22;12217;50.792;4.372;2023-02-19T08:50:00;21.20;99.90
24011;DHT22;12217;50.792;4.372;2023-02-19T08:52:26;21.30;99.90
24011;DHT22;12217;50.792;4.372;2023-02-19T08:54:52;21.30;99.90
24011;DHT22;12217;50.792;4.372;2023-02-19T08:57:17;21.30;99.90
24011;DHT22;12217;50.792;4.372;2023-02-19T08:59:43;21.30;99.90
24011;DHT22;12217;50.792;4.372;2023-02-19T09:02:09;21.30;99.90
24011;DHT22;12217;50.792;4.372;2023-02-19T09:04:37;21.30;99.90
24011;DHT22;12217;50.792;4.372;2023-02-19T09:07:03;21.30;99.90
24011;DHT22;12217;50.792;4.372;2023-02-19T09:09:32;21.30;99.90
24011;DHT22;12217;50.792;4.372;2023-02-19T09:11:58;21.40;99.90
24011;DHT22;12217;50.792;4.372;2023-02-19T09:14:23;21.40;99.90
24011;DHT22;12217;50.792;4.372;2023-02-19T09:16:49;21.40;99.90
24011;DHT22;12217;50.792;4.372;2023-02-19T09:19:15;21.50;99.90
24011;DHT22;12217;50.792;4.372;2023-02-19T09:21:41;21.50;99.90
24011;DHT22;12217;50.792;4.372;2023-02-19T09:24:08;21.60;99.90
24011;DHT22;12217;50.792;4.372;2023-02-19T09:26:34;21.60;99.90
24011;DHT22;12217;50.792;4.372;2023-02-19T09:28:59;21.60;99.90
24011;DHT22;12217;50.792;4.372;2023-02-19T09:31:25;21.60;99.90
24011;DHT22;12217;50.792;4.372;2023-02-19T09:33:51;21.60;99.90
24011;DHT22;12217;50.792;4.372;2023-02-19T09:36:17;21.60;99.90
24011;DHT22;12217;50.792;4.372;2023-02-19T09:38:43;21.60;99.90
24011;DHT22;12217;50.792;4.372;2023-02-19T09:41:36;21.60;99.90
24011;DHT22;12217;50.792;4.372;2023-02-19T09:44:05;21.60;99.90
24011;DHT22;12217;50.792;4.372;2023-02-19T09:46:32;21.60;99.90
24011;DHT22;12217;50.792;4.372;2023-02-19T09:49:10;21.60;99.90
24011;DHT22;12217;50.792;4.372;2023-02-19T09:51:40;21.60;99.90
24011;DHT22;12217;50.792;4.372;2023-02-19T09:54:23;21.60;99.90
24011;DHT22;12217;50.792;4.372;2023-02-19T09:56:49;21.50;99.90
24011;DHT22;12217;50.792;4.372;2023-02-19T09:59:28;21.60;99.90
24011;DHT22;12217;50.792;4.372;2023-02-19T10:02:11;21.50;99.90
24011;DHT22;12217;50.792;4.372;2023-02-19T10:04:41;21.60;99.90
24011;DHT22;12217;50.792;4.372;2023-02-19T10:07:14;21.50;99.90
24011;DHT22;12217;50.792;4.372;2023-02-19T10:09:40;21.50;99.90
24011;DHT22;12217;50.792;4.372;2023-02-19T10:12:25;21.50;99.90
24011;DHT22;12217;50.792;4.372;2023-02-19T10:14:54;21.50;99.90
24011;DHT22;12217;50.792;4.372;2023-02-19T10:17:24;21.50;99.90
24011;DHT22;12217;50.792;4.372;2023-02-19T10:19:52;21.50;99.90
24011;DHT22;12217;50.792;4.372;2023-02-19T10:22:18;21.50;99.90
24011;DHT22;12217;50.792;4.372;2023-02-19T10:24:48;21.40;99.90
24011;DHT22;12217;50.792;4.372;2023-02-19T10:27:14;21.40;99.90
24011;DHT22;12217;50.792;4.372;2023-02-19T10:29:45;21.40;99.90
24011;DHT22;12217;50.792;4.372;2023-02-19T10:32:21;21.40;99.90
24011;DHT22;12217;50.792;4.372;2023-02-19T10:35:09;21.50;99.90
24011;DHT22;12217;50.792;4.372;2023-02-19T10:37:44;21.40;99.90
24011;DHT22;12217;50.792;4.372;2023-02-19T10:40:18;21.50;99.90
24011;DHT22;12217;50.792;4.372;2023-02-19T10:42:51;21.50;99.90
24011;DHT22;12217;50.792;4.372;2023-02-19T10:48:02;21.40;99.90
24011;DHT22;12217;50.792;4.372;2023-02-19T10:50:31;21.40;99.90
24011;DHT22;12217;50.792;4.372;2023-02-19T10:52:59;21.40;99.90
24011;DHT22;12217;50.792;4.372;2023-02-19T10:55:33;21.40;99.90
24011;DHT22;12217;50.792;4.372;2023-02-19T10:58:35;21.40;99.90
24011;DHT22;12217;50.792;4.372;2023-02-19T11:01:23;21.40;99.90
24011;DHT22;12217;50.792;4.372;2023-02-19T11:03:49;21.40;99.90
24011;DHT22;12217;50.792;4.372;2023-02-19T11:06:18;21.30;99.90
24011;DHT22;12217;50.792;4.372;2023-02-19T11:11:34;21.30;99.90
24011;DHT22;12217;50.792;4.372;2023-02-19T11:14:04;21.30;99.90
24011;DHT22;12217;50.792;4.372;2023-02-19T11:16:47;21.30;99.90
24011;DHT22;12217;50.792;4.372;2023-02-19T11:19:23;21.30;99.90
24011;DHT22;12217;50.792;4.372;2023-02-19T11:21:49;21.30;99.90
24011;DHT22;12217;50.792;4.372;2023-02-19T11:24:42;21.30;99.90
24011;DHT22;12217;50.792;4.372;2023-02-19T11:27:18;21.30;99.90
24011;DHT22;12217;50.792;4.372;2023-02-19T11:29:44;21.30;99.90
24011;DHT22;12217;50.792;4.372;2023-02-19T11:32:23;21.30;99.90
24011;DHT22;12217;50.792;4.372;2023-02-19T11:34:49;21.30;99.90
24011;DHT22;12217;50.792;4.372;2023-02-19T11:37:20;21.30;99.90
24011;DHT22;12217;50.792;4.372;2023-02-19T11:39:47;21.30;99.90
24011;DHT22;12217;50.792;4.372;2023-02-19T11:42:35;21.40;99.90
24011;DHT22;12217;50.792;4.372;2023-02-19T11:45:26;21.40;99.90
24011;DHT22;12217;50.792;4.372;2023-02-19T11:48:07;21.30;99.90
24011;DHT22;12217;50.792;4.372;2023-02-19T11:53:32;21.40;99.90
24011;DHT22;12217;50.792;4.372;2023-02-19T11:56:35;21.30;99.90
24011;DHT22;12217;50.792;4.372;2023-02-19T11:59:19;21.40;99.90
24011;DHT22;12217;50.792;4.372;2023-02-19T12:05:18;21.30;99.90
24011;DHT22;12217;50.792;4.372;2023-02-19T12:08:28;21.30;99.90
24011;DHT22;12217;50.792;4.372;2023-02-19T12:11:18;21.30;99.90
24011;DHT22;12217;50.792;4.372;2023-02-19T12:17:08;21.30;99.90
24011;DHT22;12217;50.792;4.372;2023-02-19T12:22:21;21.30;99.90
24011;DHT22;12217;50.792;4.372;2023-02-19T12:31:05;21.20;99.90
24011;DHT22;12217;50.792;4.372;2023-02-19T12:45:23;21.20;99.90
24011;DHT22;12217;50.792;4.372;2023-02-19T12:50:31;21.20;99.90
24011;DHT22;12217;50.792;4.372;2023-02-19T12:53:22;21.20;99.90
24011;DHT22;12217;50.792;4.372;2023-02-19T12:55:49;21.20;99.90
24011;DHT22;12217;50.792;4.372;2023-02-19T12:58:34;21.20;99.90
24011;DHT22;12217;50.792;4.372;2023-02-19T13:01:03;21.20;99.90
24011;DHT22;12217;50.792;4.372;2023-02-19T13:03:38;21.20;99.90
24011;DHT22;12217;50.792;4.372;2023-02-19T13:08:44;21.20;99.90
24011;DHT22;12217;50.792;4.372;2023-02-19T13:11:16;21.20;99.90
24011;DHT22;12217;50.792;4.372;2023-02-19T13:16:37;21.20;99.90
24011;DHT22;12217;50.792;4.372;2023-02-19T13:19:04;21.20;99.90
24011;DHT22;12217;50.792;4.372;2023-02-19T13:21:35;21.20;99.90
24011;DHT22;12217;50.792;4.372;2023-02-19T13:24:27;21.20;99.90
24011;DHT22;12217;50.792;4.372;2023-02-19T13:38:09;21.20;99.90
24011;DHT22;12217;50.792;4.372;2023-02-19T13:40:39;21.30;99.90
24011;DHT22;12217;50.792;4.372;2023-02-19T13:43:25;21.30;99.90
24011;DHT22;12217;50.792;4.372;2023-02-19T13:46:05;21.30;99.90
24011;DHT22;12217;50.792;4.372;2023-02-19T13:48:34;21.30;99.90
24011;DHT22;12217;50.792;4.372;2023-02-19T13:59:24;21.30;99.90
24011;DHT22;12217;50.792;4.372;2023-02-19T14:14:53;21.40;99.90
24011;DHT22;12217;50.792;4.372;2023-02-19T14:19:53;21.40;99.90
24011;DHT22;12217;50.792;4.372;2023-02-19T14:30:50;21.30;99.90
24011;DHT22;12217;50.792;4.372;2023-02-19T14:37:12;21.20;99.90
24011;DHT22;12217;50.792;4.372;2023-02-19T14:39:37;21.20;99.90
24011;DHT22;12217;50.792;4.372;2023-02-19T14:42:15;21.20;99.90
24011;DHT22;12217;50.792;4.372;2023-02-19T14:44:57;21.20;99.90
24011;DHT22;12217;50.792;4.372;2023-02-19T14:47:26;21.20;99.90
24011;DHT22;12217;50.792;4.372;2023-02-19T14:50:01;21.20;99.90
24011;DHT22;12217;50.792;4.372;2023-02-19T14:52:36;21.10;99.90
24011;DHT22;12217;50.792;4.372;2023-02-19T14:55:31;21.10;99.90
24011;DHT22;12217;50.792;4.372;2023-02-19T14:58:00;21.10;99.90
24011;DHT22;12217;50.792;4.372;2023-02-19T15:00:39;21.10;99.90
24011;DHT22;12217;50.792;4.372;2023-02-19T15:03:31;21.10;99.90
24011;DHT22;12217;50.792;4.372;2023-02-19T15:06:01;21.10;99.90
24011;DHT22;12217;50.792;4.372;2023-02-19T15:08:48;21.10;99.90
24011;DHT22;12217;50.792;4.372;2023-02-19T15:11:19;21.10;99.90
24011;DHT22;12217;50.792;4.372;2023-02-19T15:14:03;21.10;99.90
24011;DHT22;12217;50.792;4.372;2023-02-19T15:16:31;21.10;99.90
24011;DHT22;12217;50.792;4.372;2023-02-19T15:18:58;21.10;99.90
24011;DHT22;12217;50.792;4.372;2023-02-19T15:21:27;21.10;99.90
24011;DHT22;12217;50.792;4.372;2023-02-19T15:24:01;21.10;99.90
24011;DHT22;12217;50.792;4.372;2023-02-19T15:26:33;21.20;99.90
24011;DHT22;12217;50.792;4.372;2023-02-19T15:29:08;21.10;99.90
24011;DHT22;12217;50.792;4.372;2023-02-19T15:31:34;21.20;99.90
24011;DHT22;12217;50.792;4.372;2023-02-19T15:34:00;21.20;99.90
24011;DHT22;12217;50.792;4.372;2023-02-19T15:36:29;21.20;99.90
24011;DHT22;12217;50.792;4.372;2023-02-19T15:38:58;21.20;99.90
24011;DHT22;12217;50.792;4.372;2023-02-19T15:41:26;21.20;99.90
24011;DHT22;12217;50.792;4.372;2023-02-19T15:44:06;21.20;99.90
24011;DHT22;12217;50.792;4.372;2023-02-19T15:46:34;21.20;99.90
24011;DHT22;12217;50.792;4.372;2023-02-19T15:49:13;21.20;99.90
24011;DHT22;12217;50.792;4.372;2023-02-19T15:51:52;21.20;99.90
24011;DHT22;12217;50.792;4.372;2023-02-19T15:54:35;21.30;99.90
24011;DHT22;12217;50.792;4.372;2023-02-19T15:57:05;21.30;99.90
24011;DHT22;12217;50.792;4.372;2023-02-19T16:00:00;21.30;99.90
24011;DHT22;12217;50.792;4.372;2023-02-19T16:02:26;21.40;99.90
24011;DHT22;12217;50.792;4.372;2023-02-19T16:04:52;21.40;99.90
24011;DHT22;12217;50.792;4.372;2023-02-19T16:07:36;21.40;99.90
24011;DHT22;12217;50.792;4.372;2023-02-19T16:10:21;21.40;99.90
24011;DHT22;12217;50.792;4.372;2023-02-19T16:12:55;21.50;99.90
24011;DHT22;12217;50.792;4.372;2023-02-19T16:15:20;21.50;99.90
24011;DHT22;12217;50.792;4.372;2023-02-19T16:17:46;21.50;99.90
24011;DHT22;12217;50.792;4.372;2023-02-19T16:20:27;21.50;99.90
24011;DHT22;12217;50.792;4.372;2023-02-19T16:23:14;21.50;99.90
24011;DHT22;12217;50.792;4.372;2023-02-19T16:25:43;21.60;99.90
24011;DHT22;12217;50.792;4.372;2023-02-19T16:28:17;21.50;99.90
24011;DHT22;12217;50.792;4.372;2023-02-19T16:30:43;21.50;99.90
24011;DHT22;12217;50.792;4.372;2023-02-19T16:35:54;21.40;99.90
24011;DHT22;12217;50.792;4.372;2023-02-19T16:38:20;21.40;99.90
24011;DHT22;12217;50.792;4.372;2023-02-19T16:43:29;21.40;99.90
24011;DHT22;12217;50.792;4.372;2023-02-19T16:45:56;21.30;99.90
24011;DHT22;12217;50.792;4.372;2023-02-19T16:48:23;21.30;99.90
24011;DHT22;12217;50.792;4.372;2023-02-19T16:50:49;21.30;99.90
24011;DHT22;12217;50.792;4.372;2023-02-19T16:53:20;21.30;99.90
24011;DHT22;12217;50.792;4.372;2023-02-19T16:55:46;21.30;99.90
24011;DHT22;12217;50.792;4.372;2023-02-19T16:58:12;21.20;99.90
24011;DHT22;12217;50.792;4.372;2023-02-19T17:00:38;21.20;99.90
24011;DHT22;12217;50.792;4.372;2023-02-19T17:03:10;21.20;99.90
24011;DHT22;12217;50.792;4.372;2023-02-19T17:05:38;21.20;99.90
24011;DHT22;12217;50.792;4.372;2023-02-19T17:08:21;21.20;99.90
24011;DHT22;12217;50.792;4.372;2023-02-19T17:10:49;21.20;99.90
24011;DHT22;12217;50.792;4.372;2023-02-19T17:13:15;21.20;99.90
24011;DHT22;12217;50.792;4.372;2023-02-19T17:15:41;21.20;99.90
24011;DHT22;12217;50.792;4.372;2023-02-19T17:18:09;21.20;99.90
24011;DHT22;12217;50.792;4.372;2023-02-19T17:20:35;21.10;99.90
24011;DHT22;12217;50.792;4.372;2023-02-19T17:23:01;21.10;99.90
24011;DHT22;12217;50.792;4.372;2023-02-19T17:25:27;21.10;99.90
24011;DHT22;12217;50.792;4.372;2023-02-19T17:27:53;21.10;99.90
24011;DHT22;12217;50.792;4.372;2023-02-19T17:30:26;21.10;99.90
24011;DHT22;12217;50.792;4.372;2023-02-19T17:32:53;21.10;99.90
24011;DHT22;12217;50.792;4.372;2023-02-19T17:35:19;21.00;99.90
24011;DHT22;12217;50.792;4.372;2023-02-19T17:37:45;21.10;99.90
24011;DHT22;12217;50.792;4.372;2023-02-19T17:40:24;21.10;99.90
24011;DHT22;12217;50.792;4.372;2023-02-19T17:42:50;21.10;99.90
24011;DHT22;12217;50.792;4.372;2023-02-19T17:45:16;21.10;99.90
24011;DHT22;12217;50.792;4.372;2023-02-19T17:47:42;21.10;99.90
24011;DHT22;12217;50.792;4.372;2023-02-19T17:50:18;21.10;99.90
24011;DHT22;12217;50.792;4.372;2023-02-19T17:52:43;21.10;99.90
24011;DHT22;12217;50.792;4.372;2023-02-19T17:55:11;21.10;99.90
24011;DHT22;12217;50.792;4.372;2023-02-19T17:57:37;21.10;99.90
24011;DHT22;12217;50.792;4.372;2023-02-19T18:00:04;21.10;99.90
24011;DHT22;12217;50.792;4.372;2023-02-19T18:02:29;21.10;99.90